Time;durP1;ratioP1;P1;durP2;ratioP2;P2;SDS_P1;SDS_P2;PMS_P1;PMS_P2;Temp;Humidity;BMP_temperature;BMP_pressure;BME280_temperature;BME280_humidity;BME280_pressure;Samples;Min_cycle;Max_cycle;Signal;HPM_P1;HPM_P2
2022/11/22 00:01:10;;;;;;;14.48;6.10;;;5.50;99.90;;;4.29;100.00;95410.41;5069668;28;20485;-77
2022/11/22 00:03:36;;;;;;;15.23;6.57;;;5.50;99.90;;;4.29;100.00;95407.81;5069011;28;20403;-77
2022/11/22 00:06:02;;;;;;;19.73;6.70;;;5.50;99.90;;;4.30;100.00;95404.13;5070160;28;20411;-77
2022/11/22 00:08:28;;;;;;;19.88;6.95;;;5.50;99.90;;;4.29;100.00;95397.31;5069462;28;20430;-77
2022/11/22 00:10:54;;;;;;;16.97;7.07;;;5.50;99.90;;;4.31;100.00;95387.38;5069717;28;20392;-77
2022/11/22 00:13:20;;;;;;;18.90;6.15;;;5.50;99.90;;;4.32;100.00;95377.69;5069001;28;20857;-77
2022/11/22 00:15:57;;;;;;;22.07;7.57;;;5.50;99.90;;;4.31;100.00;95370.88;5069927;28;20438;-77
2022/11/22 00:18:25;;;;;;;15.73;6.47;;;5.50;99.90;;;4.28;100.00;95372.97;5069797;28;20407;-77
2022/11/22 00:20:50;;;;;;;15.50;7.15;;;5.50;99.90;;;4.28;100.00;95380.81;5069674;28;20412;-76
2022/11/22 00:23:16;;;;;;;16.73;6.60;;;5.50;99.90;;;4.33;100.00;95372.19;5068915;28;20903;-76
2022/11/22 00:25:43;;;;;;;15.10;6.27;;;5.50;99.90;;;4.35;100.00;95372.72;5069666;28;20404;-76
2022/11/22 00:28:09;;;;;;;15.60;6.85;;;5.50;99.90;;;4.36;100.00;95370.91;5069607;28;20545;-76
2022/11/22 00:30:35;;;;;;;19.15;7.80;;;5.50;99.90;;;4.32;100.00;95373.25;5069322;28;20483;-76
2022/11/22 00:33:01;;;;;;;25.67;7.77;;;5.50;99.90;;;4.26;100.00;95375.06;5068756;28;20494;-76
2022/11/22 00:35:28;;;;;;;23.90;7.30;;;5.40;99.90;;;4.25;100.00;95372.72;5069604;28;20414;-75
2022/11/22 00:37:54;;;;;;;21.67;7.40;;;5.40;99.90;;;4.25;100.00;95378.75;5051490;28;20490;-76
2022/11/22 00:40:20;;;;;;;22.10;7.75;;;5.40;99.90;;;4.28;100.00;95382.69;5069229;28;20408;-77
2022/11/22 00:42:46;;;;;;;17.88;7.43;;;5.40;99.90;;;4.17;100.00;95381.88;5068653;28;20403;-76
2022/11/22 00:45:12;;;;;;;20.03;7.37;;;5.40;99.90;;;4.29;100.00;95384.22;5069488;28;20400;-76
2022/11/22 00:47:38;;;;;;;21.52;7.57;;;5.40;99.90;;;4.26;100.00;95374.28;5069589;28;20399;-76
2022/11/22 00:50:05;;;;;;;20.37;7.37;;;5.40;99.90;;;4.26;100.00;95392.63;5069543;28;20461;-76
2022/11/22 00:52:32;;;;;;;25.45;7.10;;;5.40;99.90;;;4.28;100.00;95403.63;5069197;28;20415;-76
2022/11/22 00:54:58;;;;;;;13.07;6.65;;;5.40;99.90;;;4.25;100.00;95399.69;5068673;28;20396;-76
2022/11/22 00:57:24;;;;;;;18.58;7.10;;;5.40;99.90;;;4.25;100.00;95412.78;5069536;28;20404;-75
2022/11/22 00:59:50;;;;;;;23.33;7.43;;;5.40;99.90;;;4.28;100.00;95411.50;5069357;28;20459;-76
2022/11/22 01:02:16;;;;;;;16.17;7.55;;;5.40;99.90;;;4.31;100.00;95412.78;5069309;28;20400;-76
2022/11/22 01:04:42;;;;;;;19.60;7.10;;;5.50;99.90;;;4.33;100.00;95418.56;5071019;28;20494;-75
2022/11/22 01:07:09;;;;;;;18.87;6.80;;;5.50;99.90;;;4.34;100.00;95422.75;5073297;28;20414;-76
2022/11/22 01:09:36;;;;;;;15.33;6.43;;;5.50;99.90;;;4.38;100.00;95429.03;5055179;28;20446;-76
2022/11/22 01:12:03;;;;;;;14.27;6.10;;;5.60;99.90;;;4.40;100.00;95430.34;5073066;28;20395;-76
2022/11/22 01:14:28;;;;;;;15.73;6.03;;;5.60;99.90;;;4.42;100.00;95428.28;5072016;28;20407;-76
2022/11/22 01:16:54;;;;;;;13.13;6.03;;;5.60;99.90;;;4.43;100.00;95434.31;5073036;28;20549;-76
2022/11/22 01:19:20;;;;;;;15.98;6.38;;;5.60;99.90;;;4.44;100.00;95435.84;5073078;28;20403;-76
2022/11/22 01:21:46;;;;;;;14.82;6.00;;;5.60;99.90;;;4.45;100.00;95437.44;5072750;28;20781;-76
2022/11/22 01:24:12;;;;;;;16.35;6.55;;;5.60;99.90;;;4.45;100.00;95434.81;5072107;28;20774;-77
2022/11/22 01:26:39;;;;;;;21.10;6.95;;;5.60;99.90;;;4.43;100.00;95439.53;5072824;28;20407;-76
2022/11/22 01:29:05;;;;;;;18.55;6.30;;;5.60;99.90;;;4.40;100.00;95440.84;5072753;28;20456;-76
2022/11/22 01:31:32;;;;;;;11.38;5.40;;;5.60;99.90;;;4.41;100.00;95437.19;5072625;28;20491;-76
2022/11/22 01:33:58;;;;;;;18.05;6.38;;;5.60;99.90;;;4.42;100.00;95435.34;5072059;28;20419;-76
2022/11/22 01:36:24;;;;;;;14.93;6.27;;;5.60;99.90;;;4.43;100.00;95442.94;5071327;28;20419;-76
2022/11/22 01:38:51;;;;;;;18.75;6.22;;;5.60;99.90;;;4.44;100.00;95441.88;5061871;28;20427;-76
2022/11/22 01:41:17;;;;;;;11.80;5.00;;;5.60;99.90;;;4.45;100.00;95445.28;5061934;28;20409;-76
2022/11/22 01:43:44;;;;;;;14.63;5.77;;;5.60;99.90;;;4.47;100.00;95443.19;5060018;28;20451;-76
2022/11/22 01:46:25;;;;;;;18.17;6.05;;;5.60;99.90;;;4.45;100.00;95443.44;5062330;28;20410;-76
2022/11/22 01:48:55;;;;;;;15.73;5.70;;;5.60;99.90;;;4.45;100.00;95435.59;5060197;28;20896;-76
2022/11/22 01:51:27;;;;;;;10.67;5.03;;;5.60;99.90;;;4.47;100.00;95433.50;5062918;28;20395;-76
2022/11/22 01:53:56;;;;;;;14.37;5.23;;;5.70;99.90;;;4.49;100.00;95434.03;5061329;28;20785;-76
2022/11/22 01:56:24;;;;;;;13.27;5.40;;;5.70;99.90;;;4.53;100.00;95440.31;5063485;28;20403;-76
2022/11/22 01:58:57;;;;;;;17.70;5.70;;;5.70;99.90;;;4.52;100.00;95441.38;5070323;28;20445;-76
2022/11/22 02:01:23;;;;;;;15.32;5.65;;;5.70;99.90;;;4.51;100.00;95452.88;5070501;28;20488;-76
2022/11/22 02:03:52;;;;;;;15.02;5.45;;;5.60;99.90;;;4.50;100.00;95446.09;5069500;28;20514;-76
2022/11/22 02:06:19;;;;;;;12.93;5.38;;;5.70;99.90;;;4.51;100.00;95444.28;5070291;28;20400;-76
2022/11/22 02:08:55;;;;;;;15.52;5.68;;;5.70;99.90;;;4.50;100.00;95445.31;5070284;28;20400;-76
2022/11/22 02:11:22;;;;;;;11.85;5.30;;;5.70;99.90;;;4.51;100.00;95446.88;5070069;28;20399;-75
2022/11/22 02:13:52;;;;;;;12.63;4.65;;;5.70;99.90;;;4.53;100.00;95452.63;5070543;28;20404;-76
2022/11/22 02:16:18;;;;;;;9.05;4.20;;;5.70;99.90;;;4.54;100.00;95441.13;5070750;28;20465;-76
2022/11/22 02:18:44;;;;;;;13.40;5.23;;;5.70;99.90;;;4.54;100.00;95443.72;5072139;28;20483;-76
2022/11/22 02:21:11;;;;;;;12.68;5.05;;;5.70;99.90;;;4.52;100.00;95448.44;5053587;28;20789;-76
2022/11/22 02:23:54;;;;;;;9.30;4.47;;;5.70;99.90;;;4.52;100.00;95451.84;5071197;28;20400;-77
2022/11/22 02:26:26;;;;;;;12.80;5.05;;;5.70;99.90;;;4.52;100.00;95458.91;5071790;28;20408;-77
2022/11/22 02:28:55;;;;;;;15.57;5.70;;;5.70;99.90;;;4.48;100.00;95458.66;5071671;28;20482;-77
2022/11/22 02:31:38;;;;;;;16.80;5.47;;;5.70;99.90;;;4.46;100.00;95465.19;5071629;28;20404;-77
2022/11/22 02:34:04;;;;;;;15.07;5.80;;;5.60;99.90;;;4.43;100.00;95473.59;5070867;28;20399;-77
2022/11/22 02:36:36;;;;;;;16.10;5.40;;;5.60;99.90;;;4.42;100.00;95467.56;5071395;28;20408;-76
2022/11/22 02:39:02;;;;;;;16.60;5.80;;;5.60;99.90;;;4.42;100.00;95467.56;5053576;28;20895;-76
2022/11/22 02:41:30;;;;;;;12.93;4.93;;;5.60;99.90;;;4.42;100.00;95472.00;5071310;28;20755;-76
2022/11/22 02:43:56;;;;;;;24.63;6.63;;;5.60;99.90;;;4.42;100.00;95469.41;5052543;28;20468;-76
2022/11/22 02:46:22;;;;;;;14.93;5.90;;;5.60;99.90;;;4.42;100.00;95464.16;5071431;28;20396;-76
2022/11/22 02:48:49;;;;;;;18.33;5.77;;;5.60;99.90;;;4.38;100.00;95460.47;5071279;28;20510;-76
2022/11/22 02:51:18;;;;;;;10.60;4.75;;;5.60;99.90;;;4.35;100.00;95471.47;5071202;28;20400;-76
2022/11/22 02:53:46;;;;;;;16.52;5.65;;;5.50;99.90;;;4.31;100.00;95465.16;5070338;28;20410;-76
2022/11/22 02:56:13;;;;;;;11.77;5.20;;;5.50;99.90;;;4.26;100.00;95474.59;5071111;28;20444;-76
2022/11/22 02:58:40;;;;;;;15.60;5.57;;;5.40;99.90;;;4.22;100.00;95463.03;5071337;28;20402;-76
2022/11/22 03:01:06;;;;;;;10.57;5.10;;;5.40;99.90;;;4.19;100.00;95470.63;5071016;28;20412;-76
2022/11/22 03:03:32;;;;;;;13.60;5.35;;;5.40;99.90;;;4.16;100.00;95471.16;5070236;28;20762;-76
2022/11/22 03:05:58;;;;;;;10.53;5.07;;;5.40;99.90;;;4.12;100.00;95483.97;5071130;28;20403;-76
2022/11/22 03:08:24;;;;;;;13.63;5.25;;;5.30;99.90;;;4.10;100.00;95485.28;5071039;28;20407;-76
2022/11/22 03:10:50;;;;;;;10.00;5.00;;;5.30;99.90;;;4.05;100.00;95480.81;5070796;28;20400;-76
2022/11/22 03:13:16;;;;;;;14.70;5.37;;;5.30;99.90;;;4.04;100.00;95481.06;5069885;28;20403;-77
2022/11/22 03:15:46;;;;;;;14.23;5.93;;;5.20;99.90;;;4.00;100.00;95480.78;5052986;28;20418;-76
2022/11/22 03:18:11;;;;;;;15.02;5.95;;;5.20;99.90;;;3.96;100.00;95484.16;5052957;28;20518;-76
2022/11/22 03:20:38;;;;;;;15.73;5.60;;;5.20;99.90;;;3.94;100.00;95481.81;5070591;28;20502;-75
2022/11/22 03:23:03;;;;;;;19.48;6.35;;;5.10;99.90;;;3.94;100.00;95486.25;5069936;28;20901;-75
2022/11/22 03:25:29;;;;;;;16.50;5.90;;;5.10;99.90;;;3.89;100.00;95492.25;5052766;28;20480;-76
2022/11/22 03:27:55;;;;;;;21.33;5.93;;;5.10;99.90;;;3.88;100.00;95488.84;5070229;28;20434;-75
2022/11/22 03:30:21;;;;;;;18.02;5.95;;;5.10;99.90;;;3.88;100.00;95498.53;5070459;28;20453;-76
2022/11/22 03:32:48;;;;;;;16.27;6.25;;;5.10;99.90;;;3.92;100.00;95504.03;5069567;28;20408;-75
2022/11/22 03:35:15;;;;;;;11.95;5.68;;;5.10;99.90;;;3.90;100.00;95501.69;5069188;28;20897;-75
2022/11/22 03:37:40;;;;;;;20.33;6.77;;;5.10;99.90;;;3.91;100.00;95513.69;5070497;28;20486;-76
2022/11/22 03:40:08;;;;;;;17.17;6.57;;;5.10;99.90;;;3.92;100.00;95510.06;5071128;23;20438;-76
2022/11/22 03:42:34;;;;;;;20.58;7.07;;;5.10;99.90;;;3.89;100.00;95503.50;5089966;28;20451;-76
2022/11/22 03:45:00;;;;;;;15.98;6.13;;;5.10;99.90;;;3.88;100.00;95511.63;5088777;28;20394;-76
2022/11/22 03:47:26;;;;;;;15.60;5.90;;;5.10;99.90;;;3.93;100.00;95498.53;5090668;28;20408;-76
2022/11/22 03:49:53;;;;;;;19.85;7.00;;;5.10;99.90;;;3.91;100.00;95498.00;5090762;28;20394;-76
2022/11/22 03:52:19;;;;;;;19.77;5.53;;;5.10;99.90;;;3.92;100.00;95499.59;5090700;28;20783;-76
2022/11/22 03:54:44;;;;;;;16.83;5.60;;;5.10;99.90;;;3.93;100.00;95500.38;5089849;28;20405;-76
2022/11/22 03:57:10;;;;;;;21.20;6.28;;;5.10;99.90;;;3.91;100.00;95500.63;5090823;28;20805;-76
2022/11/22 03:59:36;;;;;;;19.98;6.78;;;5.10;99.90;;;3.89;100.00;95495.66;5090582;28;20406;-75
2022/11/22 04:02:02;;;;;;;20.57;6.70;;;5.10;99.90;;;3.85;100.00;95494.59;5090622;28;20418;-76
2022/11/22 04:04:28;;;;;;;14.90;5.65;;;5.10;99.90;;;3.88;100.00;95501.94;5089698;28;20892;-76
2022/11/22 04:06:55;;;;;;;22.20;6.23;;;5.10;99.90;;;3.87;100.00;95499.56;5090714;28;20474;-75
2022/11/22 04:09:21;;;;;;;12.98;5.15;;;5.00;99.90;;;3.81;100.00;95505.81;5090489;28;20410;-76
2022/11/22 04:11:47;;;;;;;19.50;6.43;;;5.00;99.90;;;3.78;100.00;95514.97;5090245;28;20425;-75
2022/11/22 04:16:58;;;;;;;15.98;5.75;;;5.00;99.90;;;3.74;100.00;95518.34;5090438;28;20548;-76
2022/11/22 04:19:24;;;;;;;14.60;5.35;;;4.90;99.90;;;3.70;100.00;95512.03;5090281;28;20465;-76
2022/11/22 04:21:49;;;;;;;23.08;6.25;;;4.90;99.90;;;3.67;100.00;95508.09;5090041;28;20437;-76
2022/11/22 04:27:01;;;;;;;17.02;5.65;;;4.90;99.90;;;3.64;100.00;95516.44;5090156;28;20393;-76
2022/11/22 04:29:27;;;;;;;23.07;6.97;;;4.90;99.90;;;3.65;100.00;95517.25;5089951;28;20401;-75
2022/11/22 04:34:38;;;;;;;20.20;7.28;;;4.80;99.90;;;3.53;100.00;95516.66;5089218;28;20439;-75
2022/11/22 04:37:04;;;;;;;14.27;5.78;;;4.80;99.90;;;3.47;100.00;95516.59;5090190;28;20397;-75
2022/11/22 04:39:32;;;;;;;22.05;6.88;;;4.70;99.90;;;3.48;100.00;95520.78;5092252;28;20775;-75
2022/11/22 04:44:43;;;;;;;22.27;7.22;;;4.70;99.90;;;3.40;100.00;95515.25;5093418;28;20389;-75
2022/11/22 04:47:12;;;;;;;28.52;7.50;;;4.70;99.90;;;3.34;100.00;95513.63;5094206;28;20717;-76
2022/11/22 04:49:38;;;;;;;13.65;6.18;;;4.60;99.90;;;3.27;100.00;95513.06;5093999;28;20404;-74
2022/11/22 04:54:50;;;;;;;19.25;6.05;;;4.50;99.90;;;3.20;100.00;95504.66;5084230;28;20405;-75
2022/11/22 04:57:16;;;;;;;17.70;5.97;;;4.50;99.90;;;3.16;100.00;95509.56;5085152;28;20473;-76
2022/11/22 04:59:42;;;;;;;19.70;5.93;;;4.40;99.90;;;3.16;100.00;95504.34;5083510;28;20947;-76
2022/11/22 05:02:08;;;;;;;20.75;6.22;;;4.40;99.90;;;3.12;100.00;95503.28;5081675;28;20421;-76
2022/11/22 05:04:34;;;;;;;18.80;6.00;;;4.40;99.90;;;3.10;100.00;95507.97;5084943;28;20418;-76
2022/11/22 05:07:00;;;;;;;23.27;6.22;;;4.40;99.90;;;3.10;100.00;95495.69;5084667;28;20402;-75
2022/11/22 05:09:26;;;;;;;19.83;6.43;;;4.40;99.90;;;3.02;100.00;95503.97;5081639;28;20889;-76
2022/11/22 05:11:53;;;;;;;26.10;7.15;;;4.30;99.90;;;3.03;100.00;95510.00;5085085;28;20784;-76
2022/11/22 05:14:19;;;;;;;17.10;5.97;;;4.30;99.90;;;3.03;100.00;95518.63;5081522;28;20437;-76
2022/11/22 05:16:45;;;;;;;17.88;6.15;;;4.30;99.90;;;3.04;100.00;95525.44;5087354;28;20496;-76
2022/11/22 05:19:11;;;;;;;22.83;6.33;;;4.30;99.90;;;3.03;100.00;95531.69;5092719;28;20398;-76
2022/11/22 05:21:37;;;;;;;21.80;6.43;;;4.30;99.90;;;3.05;100.00;95536.69;5092625;28;20416;-76
2022/11/22 05:24:04;;;;;;;23.23;6.10;;;4.30;99.90;;;3.04;100.00;95541.13;5091519;28;20424;-76
2022/11/22 05:26:32;;;;;;;18.27;5.90;;;4.30;99.90;;;3.04;100.00;95545.56;5072814;28;20461;-76
2022/11/22 05:29:04;;;;;;;19.00;5.75;;;4.30;99.90;;;3.07;100.00;95542.47;5088552;28;20462;-76
2022/11/22 05:31:34;;;;;;;17.08;5.32;;;4.30;99.90;;;3.07;100.00;95537.22;5086111;28;20467;-76
2022/11/22 05:34:00;;;;;;;19.83;6.45;;;4.40;99.90;;;3.12;100.00;95545.09;5088539;28;20465;-76
2022/11/22 05:36:26;;;;;;;23.88;6.28;;;4.40;99.90;;;3.14;100.00;95544.88;5089309;28;20911;-75
2022/11/22 05:38:53;;;;;;;30.57;6.70;;;4.40;99.90;;;3.16;100.00;95556.63;5092025;28;20412;-76
2022/11/22 05:41:19;;;;;;;22.65;6.25;;;4.40;99.90;;;3.19;100.00;95558.75;5092170;28;20405;-76
2022/11/22 05:43:45;;;;;;;24.58;7.18;;;4.40;99.90;;;3.22;100.00;95554.88;5091414;28;20468;-76
2022/11/22 05:46:15;;;;;;;25.92;7.70;;;4.50;99.90;;;3.25;100.00;95549.13;5092520;28;20473;-75
2022/11/22 05:48:43;;;;;;;20.48;5.97;;;4.50;99.90;;;3.30;100.00;95559.63;5092863;28;20465;-76
2022/11/22 05:51:12;;;;;;;17.48;5.95;;;4.50;99.90;;;3.31;100.00;95555.97;5092769;28;20525;-76
2022/11/22 05:53:39;;;;;;;27.73;6.40;;;4.50;99.90;;;3.33;100.00;95553.91;5088739;28;20394;-78
2022/11/22 05:56:06;;;;;;;26.77;6.90;;;4.50;99.90;;;3.28;100.00;95551.25;5073821;28;20405;-74
2022/11/22 05:58:33;;;;;;;23.10;5.93;;;4.50;99.90;;;3.27;100.00;95547.84;5091088;28;20402;-74
2022/11/22 06:01:08;;;;;;;29.38;6.70;;;4.50;99.90;;;3.27;100.00;95549.66;5092205;28;20452;-75
2022/11/22 06:03:36;;;;;;;13.15;5.55;;;4.50;99.90;;;3.24;100.00;95553.56;5091779;28;20440;-77
2022/11/22 06:06:02;;;;;;;17.75;5.00;;;4.50;99.90;;;3.26;100.00;95561.94;5089740;28;20489;-77
2022/11/22 06:08:29;;;;;;;14.73;5.35;;;4.50;99.90;;;3.29;100.00;95563.28;5089020;28;20500;-77
2022/11/22 06:11:03;;;;;;;20.10;5.07;;;4.50;99.90;;;3.27;100.00;95574.00;5068487;28;20410;-77
2022/11/22 06:13:34;;;;;;;27.50;6.35;;;4.50;99.90;;;3.28;100.00;95583.41;5090591;28;20457;-77
2022/11/22 06:16:00;;;;;;;23.75;5.78;;;4.50;99.90;;;3.27;100.00;95581.03;5092350;28;20426;-77
2022/11/22 06:18:26;;;;;;;24.90;6.45;;;4.50;99.90;;;3.26;100.00;95589.91;5092125;28;20402;-78
2022/11/22 06:20:57;;;;;;;20.38;6.30;;;4.50;99.90;;;3.24;100.00;95577.09;5090924;28;20449;-79
2022/11/22 06:23:22;;;;;;;15.35;5.55;;;4.50;99.90;;;3.25;100.00;95590.97;5088751;28;20446;-79
2022/11/22 06:25:56;;;;;;;21.43;6.47;;;4.50;99.90;;;3.26;100.00;95582.06;5089277;28;20869;-75
2022/11/22 06:28:22;;;;;;;22.83;5.75;;;4.50;99.90;;;3.26;100.00;95587.31;5090993;28;20423;-75
2022/11/22 06:30:48;;;;;;;27.10;5.85;;;4.50;99.90;;;3.28;100.00;95593.09;5090759;28;20780;-75
2022/11/22 06:33:14;;;;;;;14.93;5.20;;;4.50;99.90;;;3.28;100.00;95593.88;5089817;28;20455;-75
2022/11/22 06:35:40;;;;;;;24.42;6.65;;;4.50;99.90;;;3.29;100.00;95600.69;5091655;28;20402;-75
2022/11/22 06:38:07;;;;;;;25.17;6.43;;;4.60;99.90;;;3.31;100.00;95601.22;5091801;28;20425;-75
2022/11/22 06:40:33;;;;;;;30.58;8.68;;;4.50;99.90;;;3.33;100.00;95603.56;5091234;28;20488;-75
2022/11/22 06:42:59;;;;;;;20.03;6.03;;;4.50;99.90;;;3.34;100.00;95611.19;5088237;28;20672;-75
2022/11/22 06:45:25;;;;;;;19.80;5.78;;;4.50;99.90;;;3.40;100.00;95610.19;5088765;28;20398;-75
2022/11/22 06:47:51;;;;;;;23.10;6.43;;;4.60;99.90;;;3.44;100.00;95624.34;5088912;28;20901;-75
2022/11/22 06:50:17;;;;;;;23.57;6.60;;;4.60;99.90;;;3.45;100.00;95631.16;5091293;28;20408;-76
2022/11/22 06:52:49;;;;;;;22.40;6.18;;;4.70;99.90;;;3.49;100.00;95644.53;5090870;28;20425;-74
2022/11/22 06:55:16;;;;;;;19.70;5.43;;;4.70;99.90;;;3.48;100.00;95646.34;5087937;28;20461;-75
2022/11/22 06:57:42;;;;;;;24.45;6.82;;;4.70;99.90;;;3.46;100.00;95651.03;5083525;28;20432;-76
2022/11/22 07:00:10;;;;;;;17.33;5.50;;;4.70;99.90;;;3.46;100.00;95656.25;5085004;28;20794;-75
2022/11/22 07:02:36;;;;;;;23.77;6.13;;;4.70;99.90;;;3.46;100.00;95655.47;5083100;28;20417;-76
2022/11/22 07:05:02;;;;;;;17.55;5.57;;;4.70;99.90;;;3.47;100.00;95663.06;5083221;28;20401;-74
2022/11/22 07:07:28;;;;;;;21.50;4.97;;;4.70;99.90;;;3.52;100.00;95667.56;5077124;28;20761;-76
2022/11/22 07:09:54;;;;;;;35.42;6.72;;;4.70;99.90;;;3.51;100.00;95671.22;5070960;28;20495;-75
2022/11/22 07:12:21;;;;;;;26.13;5.65;;;4.70;99.90;;;3.49;100.00;95673.28;5070941;28;20400;-75
2022/11/22 07:14:47;;;;;;;21.70;5.75;;;4.70;99.90;;;3.46;100.00;95677.19;5070157;28;20410;-75
2022/11/22 07:17:13;;;;;;;19.30;5.45;;;4.70;99.90;;;3.46;100.00;95681.63;5070961;28;20434;-75
2022/11/22 07:19:39;;;;;;;32.60;6.55;;;4.70;99.90;;;3.44;100.00;95675.88;5071066;28;20820;-75
2022/11/22 07:22:05;;;;;;;26.27;7.10;;;4.70;99.90;;;3.44;100.00;95681.91;5070778;28;20454;-76
2022/11/22 07:24:31;;;;;;;18.55;5.68;;;4.60;99.90;;;3.42;100.00;95683.16;5069885;28;20414;-76
2022/11/22 07:26:56;;;;;;;20.88;5.30;;;4.60;99.90;;;3.41;100.00;95687.59;5070756;28;20439;-75
2022/11/22 07:29:24;;;;;;;26.35;6.25;;;4.60;99.90;;;3.43;100.00;95688.16;5070593;28;20400;-75
2022/11/22 07:31:50;;;;;;;25.40;6.10;;;4.60;99.90;;;3.44;100.00;95696.78;5076802;28;20462;-75
2022/11/22 07:34:16;;;;;;;20.90;5.70;;;4.60;99.90;;;3.49;100.00;95697.63;5081369;28;20529;-76
2022/11/22 07:36:41;;;;;;;23.48;5.35;;;4.70;99.90;;;3.55;100.00;95695.84;5087807;28;20444;-75
2022/11/22 07:39:07;;;;;;;26.15;6.18;;;4.70;99.90;;;3.57;100.00;95706.06;5082809;28;20413;-75
2022/11/22 07:41:33;;;;;;;24.05;6.15;;;4.70;99.90;;;3.59;100.00;95707.41;5078428;28;20419;-76
2022/11/22 07:43:59;;;;;;;38.67;7.22;;;4.80;99.90;;;3.60;100.00;95718.66;5076676;28;20415;-76
2022/11/22 07:46:30;;;;;;;32.03;6.90;;;4.80;99.90;;;3.61;100.00;95713.16;5084957;28;20456;-75
2022/11/22 07:48:56;;;;;;;32.30;6.25;;;4.80;99.90;;;3.62;100.00;95722.59;5084312;28;20402;-75
2022/11/22 07:51:23;;;;;;;27.92;7.05;;;4.80;99.90;;;3.66;100.00;95718.44;5087125;28;20404;-75
2022/11/22 07:53:49;;;;;;;28.13;6.85;;;4.80;99.90;;;3.67;100.00;95716.63;5073520;28;20405;-75
2022/11/22 07:56:15;;;;;;;36.80;7.65;;;4.90;99.90;;;3.70;100.00;95721.34;5075614;28;20854;-75
2022/11/22 07:58:41;;;;;;;38.30;7.10;;;4.90;99.90;;;3.71;100.00;95725.56;5090208;28;20900;-75
2022/11/22 08:01:09;;;;;;;28.92;7.18;;;4.90;99.90;;;3.76;100.00;95720.38;5086499;28;20420;-77
2022/11/22 08:03:37;;;;;;;34.72;7.22;;;4.90;99.90;;;3.75;100.00;95718.78;5075354;28;20449;-75
2022/11/22 08:06:06;;;;;;;33.30;7.22;;;4.90;99.90;;;3.81;100.00;95720.41;5077184;28;20408;-76
2022/11/22 08:08:32;;;;;;;24.80;6.50;;;4.90;99.90;;;3.80;100.00;95724.06;5069424;28;20916;-74
2022/11/22 08:10:58;;;;;;;23.77;6.25;;;4.90;99.90;;;3.82;100.00;95720.16;5069578;28;20395;-76
2022/11/22 08:13:25;;;;;;;30.65;7.85;;;5.00;99.90;;;3.85;100.00;95726.72;5068682;28;20453;-75
2022/11/22 08:15:51;;;;;;;31.73;6.75;;;5.00;99.90;;;3.84;100.00;95715.47;5069472;28;20396;-75
2022/11/22 08:18:17;;;;;;;33.63;6.72;;;5.00;99.90;;;3.86;100.00;95718.63;5069562;28;20399;-75
2022/11/22 08:20:44;;;;;;;28.75;7.22;;;5.00;99.90;;;3.89;100.00;95725.19;5051241;28;20442;-76
2022/11/22 08:23:10;;;;;;;27.20;7.27;;;5.10;99.90;;;3.88;100.00;95724.41;5071760;28;20413;-75
2022/11/22 08:25:36;;;;;;;26.13;6.40;;;5.10;99.90;;;3.89;100.00;95726.00;5071588;28;20424;-75
2022/11/22 08:28:02;;;;;;;27.52;6.20;;;5.10;99.90;;;3.94;100.00;95724.44;5087194;28;20410;-76
2022/11/22 08:30:28;;;;;;;27.45;6.38;;;5.10;99.90;;;3.97;100.00;95716.09;5087070;28;20402;-76
2022/11/22 08:32:54;;;;;;;18.42;5.60;;;5.10;99.90;;;4.01;100.00;95711.94;5088198;28;20429;-76
2022/11/22 08:35:21;;;;;;;16.30;5.55;;;5.10;99.90;;;4.08;100.00;95717.75;5089620;28;20440;-74
2022/11/22 08:37:48;;;;;;;23.48;5.53;;;5.20;99.90;;;4.14;100.00;95720.13;5088988;28;21246;-74
2022/11/22 08:40:14;;;;;;;19.60;5.27;;;5.30;99.90;;;4.19;100.00;95716.78;5087931;28;20920;-73
2022/11/22 08:42:40;;;;;;;23.23;5.70;;;5.40;99.90;;;4.24;100.00;95722.84;5087676;28;20406;-74
2022/11/22 08:45:07;;;;;;;22.73;6.20;;;5.40;99.90;;;4.29;100.00;95717.63;5089277;28;20939;-75
2022/11/22 08:47:33;;;;;;;20.55;6.32;;;5.40;99.90;;;4.36;100.00;95708.78;5088239;28;20631;-75
2022/11/22 08:49:59;;;;;;;19.80;6.00;;;5.50;99.90;;;4.41;100.00;95703.56;5086925;28;20745;-74
2022/11/22 08:52:25;;;;;;;16.90;5.13;;;5.50;99.90;;;4.47;100.00;95702.56;5087155;28;20404;-74
2022/11/22 08:54:52;;;;;;;17.75;5.25;;;5.60;99.90;;;4.52;100.00;95713.06;5085920;28;20930;-77
2022/11/22 08:57:18;;;;;;;14.57;4.97;;;5.60;99.90;;;4.56;100.00;95701.84;5088951;28;20432;-73
2022/11/22 08:59:44;;;;;;;20.98;4.82;;;5.70;99.90;;;4.60;100.00;95699.47;5088586;28;20911;-72
2022/11/22 09:02:09;;;;;;;23.92;5.30;;;5.70;99.90;;;4.64;100.00;95693.50;5087742;28;20446;-75
2022/11/22 09:04:35;;;;;;;16.87;4.77;;;5.80;99.90;;;4.70;100.00;95696.91;5088529;28;20974;-75
2022/11/22 09:07:01;;;;;;;22.98;5.00;;;5.80;99.90;;;4.74;100.00;95692.72;5089572;28;20390;-75
2022/11/22 09:09:27;;;;;;;19.70;4.70;;;5.80;99.90;;;4.78;100.00;95683.31;5088790;28;20414;-75
2022/11/22 09:11:54;;;;;;;18.40;4.17;;;5.90;99.90;;;4.83;100.00;95680.72;5087915;28;20548;-74
2022/11/22 09:14:20;;;;;;;22.23;5.28;;;5.90;99.90;;;4.87;100.00;95676.56;5088069;28;20453;-75
2022/11/22 09:16:46;;;;;;;20.77;5.22;;;6.00;99.90;;;4.91;100.00;95674.97;5089246;28;20463;-74
2022/11/22 09:19:12;;;;;;;25.50;4.95;;;6.00;99.90;;;4.96;100.00;95680.22;5065959;28;20911;-74
2022/11/22 09:21:38;;;;;;;23.08;4.60;;;6.10;99.90;;;5.03;100.00;95691.31;5080946;28;20463;-75
2022/11/22 09:24:05;;;;;;;15.53;4.57;;;6.10;99.90;;;5.12;100.00;95688.16;5088773;28;20492;-76
2022/11/22 09:26:31;;;;;;;17.48;4.82;;;6.20;99.90;;;5.17;100.00;95696.06;5094184;28;20405;-76
2022/11/22 09:28:59;;;;;;;23.23;5.90;;;6.20;99.90;;;5.22;100.00;95701.31;5087301;28;20473;-77
2022/11/22 09:31:24;;;;;;;20.15;5.57;;;6.30;99.90;;;5.27;100.00;95704.72;5081515;28;20413;-76
2022/11/22 09:33:51;;;;;;;18.93;5.07;;;6.30;99.90;;;5.34;100.00;95712.34;5089604;28;20413;-75
2022/11/22 09:36:19;;;;;;;18.70;5.85;;;6.40;99.90;;;5.39;100.00;95712.38;5092461;28;20402;-75
2022/11/22 09:38:46;;;;;;;24.20;5.10;;;6.40;99.90;;;5.42;100.00;95717.88;5076756;28;20734;-75
2022/11/22 09:42:04;;;;;;;28.15;4.03;;;6.50;99.90;;;5.45;100.00;95729.72;5091493;28;20441;-73
2022/11/22 09:45:01;;;;;;;14.43;3.00;;;6.60;99.90;;;5.58;100.00;95742.31;5073891;28;20536;-74
2022/11/22 09:47:38;;;;;;;18.63;3.58;;;6.60;99.90;;;5.54;100.00;95736.03;5065683;28;20457;-75
2022/11/22 09:50:16;;;;;;;13.10;3.05;;;6.60;99.90;;;5.59;100.00;95737.88;5091755;28;20419;-75
2022/11/22 09:52:50;;;;;;;22.10;3.47;;;6.60;99.90;;;5.60;100.00;95736.81;5084952;28;20410;-74
2022/11/22 09:55:24;;;;;;;20.15;3.70;;;6.60;99.90;;;5.59;100.00;95743.91;5088186;28;20413;-75
2022/11/22 09:58:01;;;;;;;22.43;3.70;;;6.70;99.90;;;5.60;100.00;95739.44;5092779;28;20791;-77
2022/11/22 10:00:29;;;;;;;18.77;3.95;;;6.70;99.90;;;5.64;100.00;95753.66;5084035;28;20799;-77
2022/11/22 10:03:04;;;;;;;16.15;3.67;;;6.70;99.90;;;5.60;100.00;95744.69;5090887;28;20451;-77
2022/11/22 10:05:47;;;;;;;20.13;4.47;;;6.70;99.90;;;5.50;100.00;95745.44;5088495;28;20488;-75
2022/11/22 10:08:31;;;;;;;21.20;3.33;;;6.60;99.90;;;5.54;100.00;95761.50;5089405;28;20414;-75
2022/11/22 10:10:59;;;;;;;19.48;4.13;;;6.60;99.90;;;5.56;100.00;95767.28;5084458;28;20442;-75
2022/11/22 10:13:32;;;;;;;13.32;2.95;;;6.60;99.90;;;5.63;100.00;95757.31;5091671;28;20403;-75
2022/11/22 10:16:10;;;;;;;12.52;3.00;;;6.70;99.90;;;5.67;100.00;95766.25;5091750;28;20406;-75
2022/11/22 10:18:40;;;;;;;17.92;3.38;;;6.70;99.90;;;5.67;100.00;95750.47;5090806;28;20405;-75
2022/11/22 10:21:10;;;;;;;14.68;3.72;;;6.70;99.90;;;5.64;100.00;95758.91;5090881;28;20415;-74
2022/11/22 10:23:38;;;;;;;18.50;3.05;;;6.70;99.90;;;5.67;100.00;95759.16;5068191;28;20774;-74
2022/11/22 10:26:18;;;;;;;19.95;3.53;;;6.70;99.90;;;5.80;100.00;95771.78;5092041;28;20809;-75
2022/11/22 10:28:55;;;;;;;14.00;3.60;;;6.80;99.90;;;5.96;100.00;95764.75;5070400;28;20425;-75
2022/11/22 10:31:30;;;;;;;17.00;3.10;;;7.00;99.90;;;5.76;100.00;95765.47;5091367;28;20416;-74
2022/11/22 10:34:03;;;;;;;26.47;3.60;;;6.80;99.90;;;5.71;100.00;95778.56;5089990;28;20420;-75
2022/11/22 10:36:40;;;;;;;16.02;3.40;;;6.70;99.90;;;5.85;100.00;95771.00;5105857;22;20506;-73